sensor_id;sensor_type;location;lat;lon;timestamp;temperature;humidity
79012;DHT22;68418;44.714;37.756;2023-04-01T00:00:05;19.51;49.62
79012;DHT22;68418;44.714;37.756;2023-04-01T00:01:13;19.48;49.80
79012;DHT22;68418;44.714;37.756;2023-04-01T00:02:15;19.48;49.69
79012;DHT22;68418;44.714;37.756;2023-04-01T00:03:16;19.48;49.72
79012;DHT22;68418;44.714;37.756;2023-04-01T00:04:18;19.48;49.45
79012;DHT22;68418;44.714;37.756;2023-04-01T00:05:19;19.47;49.81
79012;DHT22;68418;44.714;37.756;2023-04-01T00:06:20;19.48;49.72
79012;DHT22;68418;44.714;37.756;2023-04-01T00:07:22;19.50;49.78
79012;DHT22;68418;44.714;37.756;2023-04-01T00:08:24;19.48;49.81
79012;DHT22;68418;44.714;37.756;2023-04-01T00:09:26;19.50;49.83
79012;DHT22;68418;44.714;37.756;2023-04-01T00:10:27;19.50;49.61
79012;DHT22;68418;44.714;37.756;2023-04-01T00:11:28;19.48;49.72
79012;DHT22;68418;44.714;37.756;2023-04-01T00:12:30;19.45;49.81
79012;DHT22;68418;44.714;37.756;2023-04-01T00:13:31;19.47;49.76
79012;DHT22;68418;44.714;37.756;2023-04-01T00:14:33;19.47;49.71
79012;DHT22;68418;44.714;37.756;2023-04-01T00:15:36;19.48;49.80
79012;DHT22;68418;44.714;37.756;2023-04-01T00:16:37;19.47;49.55
79012;DHT22;68418;44.714;37.756;2023-04-01T00:17:38;19.50;49.71
79012;DHT22;68418;44.714;37.756;2023-04-01T00:18:40;19.45;49.54
79012;DHT22;68418;44.714;37.756;2023-04-01T00:19:41;19.47;49.78
79012;DHT22;68418;44.714;37.756;2023-04-01T00:20:44;19.47;49.81
79012;DHT22;68418;44.714;37.756;2023-04-01T00:21:46;19.44;49.77
79012;DHT22;68418;44.714;37.756;2023-04-01T00:22:47;19.44;49.74
79012;DHT22;68418;44.714;37.756;2023-04-01T00:23:49;19.45;49.60
79012;DHT22;68418;44.714;37.756;2023-04-01T00:24:51;19.47;49.73
79012;DHT22;68418;44.714;37.756;2023-04-01T00:25:53;19.45;49.54
79012;DHT22;68418;44.714;37.756;2023-04-01T00:26:54;19.44;49.84
79012;DHT22;68418;44.714;37.756;2023-04-01T00:27:56;19.48;49.73
79012;DHT22;68418;44.714;37.756;2023-04-01T00:28:58;19.45;49.78
79012;DHT22;68418;44.714;37.756;2023-04-01T00:29:59;19.45;49.55
79012;DHT22;68418;44.714;37.756;2023-04-01T00:31:05;19.44;49.61
79012;DHT22;68418;44.714;37.756;2023-04-01T00:32:07;19.45;49.77
79012;DHT22;68418;44.714;37.756;2023-04-01T00:33:08;19.43;49.87
79012;DHT22;68418;44.714;37.756;2023-04-01T00:34:09;19.44;49.81
79012;DHT22;68418;44.714;37.756;2023-04-01T00:35:11;19.44;49.79
79012;DHT22;68418;44.714;37.756;2023-04-01T00:36:16;19.44;49.45
79012;DHT22;68418;44.714;37.756;2023-04-01T00:37:18;19.45;49.73
79012;DHT22;68418;44.714;37.756;2023-04-01T00:38:20;19.41;49.79
79012;DHT22;68418;44.714;37.756;2023-04-01T00:39:21;19.43;49.78
79012;DHT22;68418;44.714;37.756;2023-04-01T00:40:34;19.44;49.84
79012;DHT22;68418;44.714;37.756;2023-04-01T00:41:36;19.43;49.63
79012;DHT22;68418;44.714;37.756;2023-04-01T00:42:38;19.45;49.71
79012;DHT22;68418;44.714;37.756;2023-04-01T00:43:40;19.44;49.71
79012;DHT22;68418;44.714;37.756;2023-04-01T00:44:42;19.44;49.62
79012;DHT22;68418;44.714;37.756;2023-04-01T00:45:45;19.41;49.81
79012;DHT22;68418;44.714;37.756;2023-04-01T00:46:47;19.44;49.81
79012;DHT22;68418;44.714;37.756;2023-04-01T00:47:48;19.44;49.77
79012;DHT22;68418;44.714;37.756;2023-04-01T00:48:54;19.43;49.59
79012;DHT22;68418;44.714;37.756;2023-04-01T00:49:56;19.41;49.84
79012;DHT22;68418;44.714;37.756;2023-04-01T00:51:02;19.41;49.56
79012;DHT22;68418;44.714;37.756;2023-04-01T00:52:07;19.43;49.66
79012;DHT22;68418;44.714;37.756;2023-04-01T00:53:09;19.38;49.89
79012;DHT22;68418;44.714;37.756;2023-04-01T00:54:12;19.41;49.86
79012;DHT22;68418;44.714;37.756;2023-04-01T00:55:15;19.39;49.86
79012;DHT22;68418;44.714;37.756;2023-04-01T00:56:41;19.41;49.81
79012;DHT22;68418;44.714;37.756;2023-04-01T00:57:46;19.41;49.75
79012;DHT22;68418;44.714;37.756;2023-04-01T00:58:51;19.41;49.80
79012;DHT22;68418;44.714;37.756;2023-04-01T00:59:54;19.39;49.76
79012;DHT22;68418;44.714;37.756;2023-04-01T01:00:57;19.39;49.73
79012;DHT22;68418;44.714;37.756;2023-04-01T01:02:02;19.43;49.63
79012;DHT22;68418;44.714;37.756;2023-04-01T01:03:03;19.41;49.62
79012;DHT22;68418;44.714;37.756;2023-04-01T01:04:05;19.41;49.72
79012;DHT22;68418;44.714;37.756;2023-04-01T01:05:07;19.39;49.46
79012;DHT22;68418;44.714;37.756;2023-04-01T01:09:00;19.43;49.72
79012;DHT22;68418;44.714;37.756;2023-04-01T01:11:08;19.41;49.83
79012;DHT22;68418;44.714;37.756;2023-04-01T01:12:25;19.41;49.69
79012;DHT22;68418;44.714;37.756;2023-04-01T01:14:07;19.35;49.84
79012;DHT22;68418;44.714;37.756;2023-04-01T01:15:36;19.38;49.74
79012;DHT22;68418;44.714;37.756;2023-04-01T01:16:44;19.39;49.78
79012;DHT22;68418;44.714;37.756;2023-04-01T01:29:33;19.34;49.58
79012;DHT22;68418;44.714;37.756;2023-04-01T01:30:54;19.37;49.79
79012;DHT22;68418;44.714;37.756;2023-04-01T01:33:35;19.34;49.88
79012;DHT22;68418;44.714;37.756;2023-04-01T01:35:55;19.34;49.75
79012;DHT22;68418;44.714;37.756;2023-04-01T01:37:05;19.32;49.53
79012;DHT22;68418;44.714;37.756;2023-04-01T01:38:14;19.34;49.86
79012;DHT22;68418;44.714;37.756;2023-04-01T01:39:20;19.32;49.78
79012;DHT22;68418;44.714;37.756;2023-04-01T01:40:28;19.32;49.62
79012;DHT22;68418;44.714;37.756;2023-04-01T01:41:32;19.32;49.87
79012;DHT22;68418;44.714;37.756;2023-04-01T01:42:38;19.34;49.45
79012;DHT22;68418;44.714;37.756;2023-04-01T01:43:43;19.32;49.58
79012;DHT22;68418;44.714;37.756;2023-04-01T01:44:48;19.34;49.88
79012;DHT22;68418;44.714;37.756;2023-04-01T01:45:54;19.32;49.86
79012;DHT22;68418;44.714;37.756;2023-04-01T01:46:57;19.34;49.83
79012;DHT22;68418;44.714;37.756;2023-04-01T01:48:00;19.34;49.84
79012;DHT22;68418;44.714;37.756;2023-04-01T01:49:04;19.32;49.91
79012;DHT22;68418;44.714;37.756;2023-04-01T01:50:08;19.30;49.89
79012;DHT22;68418;44.714;37.756;2023-04-01T01:51:10;19.32;49.78
79012;DHT22;68418;44.714;37.756;2023-04-01T01:52:12;19.30;49.90
79012;DHT22;68418;44.714;37.756;2023-04-01T01:53:14;19.31;49.85
79012;DHT22;68418;44.714;37.756;2023-04-01T01:54:17;19.34;49.82
79012;DHT22;68418;44.714;37.756;2023-04-01T01:55:37;19.31;49.80
79012;DHT22;68418;44.714;37.756;2023-04-01T01:56:39;19.31;49.84
79012;DHT22;68418;44.714;37.756;2023-04-01T01:57:42;19.34;49.85
79012;DHT22;68418;44.714;37.756;2023-04-01T01:58:52;19.32;49.67
79012;DHT22;68418;44.714;37.756;2023-04-01T02:00:00;19.32;49.59
79012;DHT22;68418;44.714;37.756;2023-04-01T02:01:05;19.31;49.65
79012;DHT22;68418;44.714;37.756;2023-04-01T02:02:08;19.31;49.64
79012;DHT22;68418;44.714;37.756;2023-04-01T02:03:13;19.30;49.87
79012;DHT22;68418;44.714;37.756;2023-04-01T02:04:15;19.32;49.89
79012;DHT22;68418;44.714;37.756;2023-04-01T02:05:21;19.31;49.73
79012;DHT22;68418;44.714;37.756;2023-04-01T02:06:27;19.31;49.76
79012;DHT22;68418;44.714;37.756;2023-04-01T02:07:33;19.32;49.75
79012;DHT22;68418;44.714;37.756;2023-04-01T02:08:45;19.32;49.78
79012;DHT22;68418;44.714;37.756;2023-04-01T02:09:48;19.32;49.70
79012;DHT22;68418;44.714;37.756;2023-04-01T02:10:56;19.32;49.76
79012;DHT22;68418;44.714;37.756;2023-04-01T02:12:09;19.34;49.72
79012;DHT22;68418;44.714;37.756;2023-04-01T02:13:24;19.32;49.86
79012;DHT22;68418;44.714;37.756;2023-04-01T02:15:55;19.30;49.87
79012;DHT22;68418;44.714;37.756;2023-04-01T02:17:04;19.30;49.94
79012;DHT22;68418;44.714;37.756;2023-04-01T02:18:07;19.31;49.58
79012;DHT22;68418;44.714;37.756;2023-04-01T02:19:10;19.28;49.89
79012;DHT22;68418;44.714;37.756;2023-04-01T02:20:17;19.32;49.86
79012;DHT22;68418;44.714;37.756;2023-04-01T02:21:22;19.32;49.92
79012;DHT22;68418;44.714;37.756;2023-04-01T02:22:31;19.30;49.71
79012;DHT22;68418;44.714;37.756;2023-04-01T02:23:37;19.32;49.72
79012;DHT22;68418;44.714;37.756;2023-04-01T02:24:40;19.31;49.57
79012;DHT22;68418;44.714;37.756;2023-04-01T02:25:43;19.31;49.81
79012;DHT22;68418;44.714;37.756;2023-04-01T02:26:46;19.30;49.72
79012;DHT22;68418;44.714;37.756;2023-04-01T02:27:48;19.28;49.65
79012;DHT22;68418;44.714;37.756;2023-04-01T02:28:50;19.30;49.80
79012;DHT22;68418;44.714;37.756;2023-04-01T02:29:52;19.31;49.72
79012;DHT22;68418;44.714;37.756;2023-04-01T02:30:54;19.30;49.95
79012;DHT22;68418;44.714;37.756;2023-04-01T02:31:56;19.27;49.75
79012;DHT22;68418;44.714;37.756;2023-04-01T02:32:58;19.31;49.91
79012;DHT22;68418;44.714;37.756;2023-04-01T02:34:00;19.28;49.72
79012;DHT22;68418;44.714;37.756;2023-04-01T02:35:04;19.30;49.81
79012;DHT22;68418;44.714;37.756;2023-04-01T02:36:12;19.28;49.92
79012;DHT22;68418;44.714;37.756;2023-04-01T02:37:14;19.27;49.79
79012;DHT22;68418;44.714;37.756;2023-04-01T02:38:16;19.30;49.64
79012;DHT22;68418;44.714;37.756;2023-04-01T02:39:17;19.31;49.72
79012;DHT22;68418;44.714;37.756;2023-04-01T02:40:19;19.31;49.75
79012;DHT22;68418;44.714;37.756;2023-04-01T02:41:22;19.32;49.80
79012;DHT22;68418;44.714;37.756;2023-04-01T02:42:23;19.31;49.86
79012;DHT22;68418;44.714;37.756;2023-04-01T02:43:24;19.30;49.64
79012;DHT22;68418;44.714;37.756;2023-04-01T02:44:26;19.28;49.87
79012;DHT22;68418;44.714;37.756;2023-04-01T02:45:27;19.30;49.74
79012;DHT22;68418;44.714;37.756;2023-04-01T02:46:28;19.30;49.79
79012;DHT22;68418;44.714;37.756;2023-04-01T02:47:29;19.28;49.69
79012;DHT22;68418;44.714;37.756;2023-04-01T02:48:31;19.31;49.71
79012;DHT22;68418;44.714;37.756;2023-04-01T02:49:32;19.34;49.92
79012;DHT22;68418;44.714;37.756;2023-04-01T02:50:34;19.35;49.60
79012;DHT22;68418;44.714;37.756;2023-04-01T02:51:35;19.32;49.54
79012;DHT22;68418;44.714;37.756;2023-04-01T02:52:36;19.31;49.76
79012;DHT22;68418;44.714;37.756;2023-04-01T02:53:38;19.30;49.96
79012;DHT22;68418;44.714;37.756;2023-04-01T02:54:39;19.27;49.83
79012;DHT22;68418;44.714;37.756;2023-04-01T02:55:41;19.24;50.21
79012;DHT22;68418;44.714;37.756;2023-04-01T02:56:43;19.26;49.35
79012;DHT22;68418;44.714;37.756;2023-04-01T02:57:44;19.24;49.80
79012;DHT22;68418;44.714;37.756;2023-04-01T02:58:46;19.24;49.96
79012;DHT22;68418;44.714;37.756;2023-04-01T02:59:47;19.23;49.57
79012;DHT22;68418;44.714;37.756;2023-04-01T03:00:48;19.23;49.58
79012;DHT22;68418;44.714;37.756;2023-04-01T03:01:50;19.24;49.81
79012;DHT22;68418;44.714;37.756;2023-04-01T03:02:52;19.21;49.92
79012;DHT22;68418;44.714;37.756;2023-04-01T03:03:53;19.21;50.04
79012;DHT22;68418;44.714;37.756;2023-04-01T03:04:55;19.23;50.16
79012;DHT22;68418;44.714;37.756;2023-04-01T03:05:56;19.23;49.68
79012;DHT22;68418;44.714;37.756;2023-04-01T03:06:59;19.19;50.06
79012;DHT22;68418;44.714;37.756;2023-04-01T03:08:01;19.19;50.30
79012;DHT22;68418;44.714;37.756;2023-04-01T03:09:03;19.20;49.76
79012;DHT22;68418;44.714;37.756;2023-04-01T03:10:06;19.19;49.78
79012;DHT22;68418;44.714;37.756;2023-04-01T03:11:08;19.20;50.35
79012;DHT22;68418;44.714;37.756;2023-04-01T03:12:11;19.19;49.92
79012;DHT22;68418;44.714;37.756;2023-04-01T03:13:21;19.17;49.62
79012;DHT22;68418;44.714;37.756;2023-04-01T03:14:23;19.19;49.95
79012;DHT22;68418;44.714;37.756;2023-04-01T03:15:24;19.17;49.67
79012;DHT22;68418;44.714;37.756;2023-04-01T03:16:32;19.17;49.61
79012;DHT22;68418;44.714;37.756;2023-04-01T03:17:34;19.16;50.03
79012;DHT22;68418;44.714;37.756;2023-04-01T03:18:35;19.17;49.69
79012;DHT22;68418;44.714;37.756;2023-04-01T03:19:36;19.14;49.71
79012;DHT22;68418;44.714;37.756;2023-04-01T03:20:42;19.19;50.05
79012;DHT22;68418;44.714;37.756;2023-04-01T03:21:43;19.16;49.89
79012;DHT22;68418;44.714;37.756;2023-04-01T03:22:44;19.16;49.70
79012;DHT22;68418;44.714;37.756;2023-04-01T03:23:47;19.14;50.00
79012;DHT22;68418;44.714;37.756;2023-04-01T03:24:49;19.14;49.68
79012;DHT22;68418;44.714;37.756;2023-04-01T03:25:51;19.16;49.72
79012;DHT22;68418;44.714;37.756;2023-04-01T03:26:52;19.14;49.76
79012;DHT22;68418;44.714;37.756;2023-04-01T03:27:54;19.17;49.53
79012;DHT22;68418;44.714;37.756;2023-04-01T03:28:56;19.16;49.51
79012;DHT22;68418;44.714;37.756;2023-04-01T03:29:58;19.13;49.40
79012;DHT22;68418;44.714;37.756;2023-04-01T03:30:59;19.14;50.25
79012;DHT22;68418;44.714;37.756;2023-04-01T03:32:00;19.13;49.85
79012;DHT22;68418;44.714;37.756;2023-04-01T03:33:02;19.14;49.46
79012;DHT22;68418;44.714;37.756;2023-04-01T03:34:05;19.13;49.64
79012;DHT22;68418;44.714;37.756;2023-04-01T03:35:07;19.14;49.87
79012;DHT22;68418;44.714;37.756;2023-04-01T03:36:10;19.17;49.63
79012;DHT22;68418;44.714;37.756;2023-04-01T03:37:13;19.21;49.90
79012;DHT22;68418;44.714;37.756;2023-04-01T03:38:15;19.28;49.88
79012;DHT22;68418;44.714;37.756;2023-04-01T03:39:16;19.27;49.87
79012;DHT22;68418;44.714;37.756;2023-04-01T03:40:20;19.27;49.93
79012;DHT22;68418;44.714;37.756;2023-04-01T03:41:22;19.28;49.48
79012;DHT22;68418;44.714;37.756;2023-04-01T03:42:23;19.31;49.43
79012;DHT22;68418;44.714;37.756;2023-04-01T03:43:25;19.31;49.86
79012;DHT22;68418;44.714;37.756;2023-04-01T03:44:31;19.34;50.48
79012;DHT22;68418;44.714;37.756;2023-04-01T03:45:33;19.38;50.32
79012;DHT22;68418;44.714;37.756;2023-04-01T03:46:34;19.41;50.48
79012;DHT22;68418;44.714;37.756;2023-04-01T03:47:42;19.41;49.65
79012;DHT22;68418;44.714;37.756;2023-04-01T03:48:43;19.34;49.22
79012;DHT22;68418;44.714;37.756;2023-04-01T03:49:44;19.31;49.38
79012;DHT22;68418;44.714;37.756;2023-04-01T03:50:48;19.30;48.96
79012;DHT22;68418;44.714;37.756;2023-04-01T03:51:49;19.24;49.38
79012;DHT22;68418;44.714;37.756;2023-04-01T03:52:51;19.23;50.26
79012;DHT22;68418;44.714;37.756;2023-04-01T03:53:52;19.24;50.36
79012;DHT22;68418;44.714;37.756;2023-04-01T03:54:53;19.21;49.91
79012;DHT22;68418;44.714;37.756;2023-04-01T03:55:58;19.21;49.66
79012;DHT22;68418;44.714;37.756;2023-04-01T03:57:00;19.20;49.48
79012;DHT22;68418;44.714;37.756;2023-04-01T03:58:01;19.20;49.61
79012;DHT22;68418;44.714;37.756;2023-04-01T03:59:05;19.20;50.14
79012;DHT22;68418;44.714;37.756;2023-04-01T04:00:09;19.17;50.02
79012;DHT22;68418;44.714;37.756;2023-04-01T04:01:21;19.17;50.05
79012;DHT22;68418;44.714;37.756;2023-04-01T04:02:26;19.14;50.05
79012;DHT22;68418;44.714;37.756;2023-04-01T04:03:28;19.16;49.99
79012;DHT22;68418;44.714;37.756;2023-04-01T04:04:29;19.17;50.79
79012;DHT22;68418;44.714;37.756;2023-04-01T04:05:31;19.14;49.90
79012;DHT22;68418;44.714;37.756;2023-04-01T04:06:33;19.17;50.36
79012;DHT22;68418;44.714;37.756;2023-04-01T04:07:35;19.14;50.34
79012;DHT22;68418;44.714;37.756;2023-04-01T04:08:42;19.16;50.21
79012;DHT22;68418;44.714;37.756;2023-04-01T04:09:43;19.14;50.32
79012;DHT22;68418;44.714;37.756;2023-04-01T04:10:45;19.16;49.78
79012;DHT22;68418;44.714;37.756;2023-04-01T04:11:47;19.17;50.66
79012;DHT22;68418;44.714;37.756;2023-04-01T04:12:49;19.16;50.38
79012;DHT22;68418;44.714;37.756;2023-04-01T04:13:51;19.26;48.66
79012;DHT22;68418;44.714;37.756;2023-04-01T04:14:53;19.35;48.98
79012;DHT22;68418;44.714;37.756;2023-04-01T04:15:54;19.41;48.27
79012;DHT22;68418;44.714;37.756;2023-04-01T04:16:56;19.50;48.49
79012;DHT22;68418;44.714;37.756;2023-04-01T04:18:04;19.54;47.91
79012;DHT22;68418;44.714;37.756;2023-04-01T04:19:05;19.59;47.75
79012;DHT22;68418;44.714;37.756;2023-04-01T04:20:07;19.61;47.90
79012;DHT22;68418;44.714;37.756;2023-04-01T04:21:14;19.66;47.79
79012;DHT22;68418;44.714;37.756;2023-04-01T04:22:16;19.66;47.45
79012;DHT22;68418;44.714;37.756;2023-04-01T04:23:17;19.71;47.49
79012;DHT22;68418;44.714;37.756;2023-04-01T04:24:19;19.74;47.50
79012;DHT22;68418;44.714;37.756;2023-04-01T04:25:34;19.75;47.39
79012;DHT22;68418;44.714;37.756;2023-04-01T04:26:35;19.76;47.39
79012;DHT22;68418;44.714;37.756;2023-04-01T04:27:37;19.76;47.42
79012;DHT22;68418;44.714;37.756;2023-04-01T04:28:43;19.81;47.36
79012;DHT22;68418;44.714;37.756;2023-04-01T04:29:46;19.78;47.31
79012;DHT22;68418;44.714;37.756;2023-04-01T04:30:47;19.81;47.30
79012;DHT22;68418;44.714;37.756;2023-04-01T04:31:48;19.86;47.23
79012;DHT22;68418;44.714;37.756;2023-04-01T04:32:50;19.85;47.36
79012;DHT22;68418;44.714;37.756;2023-04-01T04:33:51;19.89;47.14
79012;DHT22;68418;44.714;37.756;2023-04-01T04:34:53;19.89;47.31
79012;DHT22;68418;44.714;37.756;2023-04-01T04:35:56;19.89;47.23
79012;DHT22;68418;44.714;37.756;2023-04-01T04:36:58;19.90;47.29
79012;DHT22;68418;44.714;37.756;2023-04-01T04:38:04;19.89;47.21
79012;DHT22;68418;44.714;37.756;2023-04-01T04:39:06;19.90;47.15
79012;DHT22;68418;44.714;37.756;2023-04-01T04:40:09;19.89;47.21
79012;DHT22;68418;44.714;37.756;2023-04-01T04:41:13;19.87;47.17
79012;DHT22;68418;44.714;37.756;2023-04-01T04:42:16;19.89;47.19
79012;DHT22;68418;44.714;37.756;2023-04-01T04:43:18;19.90;47.09
79012;DHT22;68418;44.714;37.756;2023-04-01T04:44:19;19.92;47.24
79012;DHT22;68418;44.714;37.756;2023-04-01T04:45:21;19.94;47.10
79012;DHT22;68418;44.714;37.756;2023-04-01T04:46:28;19.94;47.01
79012;DHT22;68418;44.714;37.756;2023-04-01T04:47:37;19.92;47.09
79012;DHT22;68418;44.714;37.756;2023-04-01T04:48:39;19.94;47.10
79012;DHT22;68418;44.714;37.756;2023-04-01T04:49:40;19.96;47.22
79012;DHT22;68418;44.714;37.756;2023-04-01T04:50:45;19.96;47.08
79012;DHT22;68418;44.714;37.756;2023-04-01T04:51:48;19.96;47.00
79012;DHT22;68418;44.714;37.756;2023-04-01T04:52:51;19.99;47.00
79012;DHT22;68418;44.714;37.756;2023-04-01T04:53:53;19.97;46.90
79012;DHT22;68418;44.714;37.756;2023-04-01T04:55:03;19.97;46.99
79012;DHT22;68418;44.714;37.756;2023-04-01T04:56:05;20.02;47.13
79012;DHT22;68418;44.714;37.756;2023-04-01T04:57:16;20.00;46.97
79012;DHT22;68418;44.714;37.756;2023-04-01T04:58:26;20.00;47.21
79012;DHT22;68418;44.714;37.756;2023-04-01T04:59:28;20.03;47.02
79012;DHT22;68418;44.714;37.756;2023-04-01T05:00:56;20.09;47.26
79012;DHT22;68418;44.714;37.756;2023-04-01T05:02:04;20.10;47.12
79012;DHT22;68418;44.714;37.756;2023-04-01T05:03:06;20.13;46.96
79012;DHT22;68418;44.714;37.756;2023-04-01T05:04:08;20.13;46.91
79012;DHT22;68418;44.714;37.756;2023-04-01T05:05:09;20.16;46.90
79012;DHT22;68418;44.714;37.756;2023-04-01T05:06:13;20.14;47.81
79012;DHT22;68418;44.714;37.756;2023-04-01T05:07:15;20.13;47.09
79012;DHT22;68418;44.714;37.756;2023-04-01T05:08:18;20.10;46.93
79012;DHT22;68418;44.714;37.756;2023-04-01T05:09:19;20.03;47.06
79012;DHT22;68418;44.714;37.756;2023-04-01T05:10:21;19.97;47.14
79012;DHT22;68418;44.714;37.756;2023-04-01T05:11:23;19.92;47.27
79012;DHT22;68418;44.714;37.756;2023-04-01T05:12:26;19.92;47.27
79012;DHT22;68418;44.714;37.756;2023-04-01T05:13:34;19.87;47.50
79012;DHT22;68418;44.714;37.756;2023-04-01T05:14:36;19.87;47.40
79012;DHT22;68418;44.714;37.756;2023-04-01T05:15:43;19.86;47.36
79012;DHT22;68418;44.714;37.756;2023-04-01T05:16:44;19.83;47.69
79012;DHT22;68418;44.714;37.756;2023-04-01T05:17:46;19.92;47.61
79012;DHT22;68418;44.714;37.756;2023-04-01T05:18:52;19.96;47.46
79012;DHT22;68418;44.714;37.756;2023-04-01T05:19:54;20.00;47.37
79012;DHT22;68418;44.714;37.756;2023-04-01T05:21:01;20.03;47.23
79012;DHT22;68418;44.714;37.756;2023-04-01T05:22:06;20.08;47.22
79012;DHT22;68418;44.714;37.756;2023-04-01T05:23:12;20.13;46.97
79012;DHT22;68418;44.714;37.756;2023-04-01T05:24:13;20.14;46.74
79012;DHT22;68418;44.714;37.756;2023-04-01T05:25:15;20.17;46.75
79012;DHT22;68418;44.714;37.756;2023-04-01T05:26:17;20.19;47.40
79012;DHT22;68418;44.714;37.756;2023-04-01T05:27:18;20.20;47.21
79012;DHT22;68418;44.714;37.756;2023-04-01T05:28:20;20.17;47.23
79012;DHT22;68418;44.714;37.756;2023-04-01T05:29:23;20.17;46.86
79012;DHT22;68418;44.714;37.756;2023-04-01T05:30:30;20.10;46.73
79012;DHT22;68418;44.714;37.756;2023-04-01T05:31:49;20.10;46.90
79012;DHT22;68418;44.714;37.756;2023-04-01T05:32:50;20.06;47.12
79012;DHT22;68418;44.714;37.756;2023-04-01T05:33:52;20.05;47.56
79012;DHT22;68418;44.714;37.756;2023-04-01T05:34:55;20.02;47.56
79012;DHT22;68418;44.714;37.756;2023-04-01T05:36:05;19.97;48.73
79012;DHT22;68418;44.714;37.756;2023-04-01T05:37:07;19.99;47.77
79012;DHT22;68418;44.714;37.756;2023-04-01T05:38:08;19.96;48.60
79012;DHT22;68418;44.714;37.756;2023-04-01T05:39:10;19.97;48.73
79012;DHT22;68418;44.714;37.756;2023-04-01T05:40:12;19.94;48.81
79012;DHT22;68418;44.714;37.756;2023-04-01T05:41:14;19.92;47.92
79012;DHT22;68418;44.714;37.756;2023-04-01T05:42:19;19.94;48.01
79012;DHT22;68418;44.714;37.756;2023-04-01T05:43:21;19.90;48.09
79012;DHT22;68418;44.714;37.756;2023-04-01T05:44:35;19.90;48.87
79012;DHT22;68418;44.714;37.756;2023-04-01T05:45:37;19.92;49.54
79012;DHT22;68418;44.714;37.756;2023-04-01T05:46:57;19.89;49.09
79012;DHT22;68418;44.714;37.756;2023-04-01T05:48:01;19.90;49.54
79012;DHT22;68418;44.714;37.756;2023-04-01T05:49:05;19.87;48.69
79012;DHT22;68418;44.714;37.756;2023-04-01T05:50:09;19.89;48.22
79012;DHT22;68418;44.714;37.756;2023-04-01T05:51:15;19.94;49.47
79012;DHT22;68418;44.714;37.756;2023-04-01T05:52:17;20.03;47.98
79012;DHT22;68418;44.714;37.756;2023-04-01T05:53:19;20.09;48.13
79012;DHT22;68418;44.714;37.756;2023-04-01T05:54:21;20.12;48.08
79012;DHT22;68418;44.714;37.756;2023-04-01T05:55:22;20.14;48.10
79012;DHT22;68418;44.714;37.756;2023-04-01T05:56:25;20.17;48.29
79012;DHT22;68418;44.714;37.756;2023-04-01T05:57:27;20.24;48.37
79012;DHT22;68418;44.714;37.756;2023-04-01T05:58:29;20.30;48.37
79012;DHT22;68418;44.714;37.756;2023-04-01T05:59:30;20.31;47.79
79012;DHT22;68418;44.714;37.756;2023-04-01T06:00:36;20.36;48.63
79012;DHT22;68418;44.714;37.756;2023-04-01T06:01:38;20.36;48.60
79012;DHT22;68418;44.714;37.756;2023-04-01T06:02:40;20.34;49.84
79012;DHT22;68418;44.714;37.756;2023-04-01T06:03:43;20.30;48.04
79012;DHT22;68418;44.714;37.756;2023-04-01T06:04:45;20.29;47.97
79012;DHT22;68418;44.714;37.756;2023-04-01T06:05:47;20.24;49.28
79012;DHT22;68418;44.714;37.756;2023-04-01T06:06:49;20.23;48.19
79012;DHT22;68418;44.714;37.756;2023-04-01T06:07:57;20.20;49.88
79012;DHT22;68418;44.714;37.756;2023-04-01T06:09:12;20.23;49.56
79012;DHT22;68418;44.714;37.756;2023-04-01T06:10:17;20.20;49.65
79012;DHT22;68418;44.714;37.756;2023-04-01T06:13:30;20.17;49.33
79012;DHT22;68418;44.714;37.756;2023-04-01T06:20:02;20.12;49.62
79012;DHT22;68418;44.714;37.756;2023-04-01T06:34:40;20.06;49.50
79012;DHT22;68418;44.714;37.756;2023-04-01T06:37:44;20.09;49.45
79012;DHT22;68418;44.714;37.756;2023-04-01T06:39:24;20.06;49.81
79012;DHT22;68418;44.714;37.756;2023-04-01T06:42:17;20.06;49.56
79012;DHT22;68418;44.714;37.756;2023-04-01T06:43:25;20.03;50.14
79012;DHT22;68418;44.714;37.756;2023-04-01T06:50:30;20.06;49.83
79012;DHT22;68418;44.714;37.756;2023-04-01T06:54:00;20.02;50.03
79012;DHT22;68418;44.714;37.756;2023-04-01T06:55:44;20.05;49.86
79012;DHT22;68418;44.714;37.756;2023-04-01T06:56:53;20.03;49.74
79012;DHT22;68418;44.714;37.756;2023-04-01T06:58:21;20.03;50.00
79012;DHT22;68418;44.714;37.756;2023-04-01T06:59:28;20.03;49.81
79012;DHT22;68418;44.714;37.756;2023-04-01T07:00:39;20.05;49.76
79012;DHT22;68418;44.714;37.756;2023-04-01T07:01:49;20.03;49.32
79012;DHT22;68418;44.714;37.756;2023-04-01T07:04:23;20.06;49.53
79012;DHT22;68418;44.714;37.756;2023-04-01T07:05:35;20.05;49.62
79012;DHT22;68418;44.714;37.756;2023-04-01T07:07:50;20.05;49.73
79012;DHT22;68418;44.714;37.756;2023-04-01T07:08:57;20.06;49.74
79012;DHT22;68418;44.714;37.756;2023-04-01T07:10:09;20.03;49.17
79012;DHT22;68418;44.714;37.756;2023-04-01T07:11:34;20.10;48.97
79012;DHT22;68418;44.714;37.756;2023-04-01T07:12:56;20.16;48.95
79012;DHT22;68418;44.714;37.756;2023-04-01T07:14:32;20.26;48.56
79012;DHT22;68418;44.714;37.756;2023-04-01T07:15:39;20.30;48.34
79012;DHT22;68418;44.714;37.756;2023-04-01T07:16:51;20.34;48.48
79012;DHT22;68418;44.714;37.756;2023-04-01T07:17:57;20.38;48.13
79012;DHT22;68418;44.714;37.756;2023-04-01T07:19:14;20.40;48.23
79012;DHT22;68418;44.714;37.756;2023-04-01T07:20:38;20.44;48.07
79012;DHT22;68418;44.714;37.756;2023-04-01T07:21:56;20.48;48.37
79012;DHT22;68418;44.714;37.756;2023-04-01T07:23:18;20.49;48.03
79012;DHT22;68418;44.714;37.756;2023-04-01T07:24:37;20.52;47.91
79012;DHT22;68418;44.714;37.756;2023-04-01T07:25:55;20.52;47.85
79012;DHT22;68418;44.714;37.756;2023-04-01T07:27:02;20.54;47.81
79012;DHT22;68418;44.714;37.756;2023-04-01T07:28:13;20.57;47.93
79012;DHT22;68418;44.714;37.756;2023-04-01T07:29:16;20.59;47.97
79012;DHT22;68418;44.714;37.756;2023-04-01T07:30:27;20.59;47.70
79012;DHT22;68418;44.714;37.756;2023-04-01T07:32:49;20.59;47.63
79012;DHT22;68418;44.714;37.756;2023-04-01T07:35:27;20.63;47.37
79012;DHT22;68418;44.714;37.756;2023-04-01T07:42:18;20.65;47.21
79012;DHT22;68418;44.714;37.756;2023-04-01T07:43:39;20.64;47.18
79012;DHT22;68418;44.714;37.756;2023-04-01T07:45:18;20.67;47.27
79012;DHT22;68418;44.714;37.756;2023-04-01T07:53:15;20.68;47.13
79012;DHT22;68418;44.714;37.756;2023-04-01T07:57:06;20.68;47.15